Time;durP1;ratioP1;P1;durP2;ratioP2;P2;SDS_P1;SDS_P2;PMS_P1;PMS_P2;Temp;Humidity;BMP_temperature;BMP_pressure;BME280_temperature;BME280_humidity;BME280_pressure;Samples;Min_cycle;Max_cycle;Signal;HPM_P1;HPM_P2
2021/10/26 00:01:34;;;;;;;30.27;24.40;;;5.50;96.10;;;4.17;98.65;98351.19;5083849;28;20763;-73
2021/10/26 00:04:01;;;;;;;29.80;25.33;;;5.50;95.90;;;4.20;97.90;98345.50;5088278;28;20492;-75
2021/10/26 00:06:28;;;;;;;31.50;26.90;;;5.60;95.60;;;4.22;97.91;98350.66;5084136;28;20523;-73
2021/10/26 00:08:56;;;;;;;30.27;25.93;;;5.60;95.30;;;4.20;98.52;98344.66;5086015;28;20540;-74
2021/10/26 00:11:23;;;;;;;29.03;24.53;;;5.60;94.90;;;4.08;97.94;98346.81;5081606;28;20497;-74
2021/10/26 00:13:50;;;;;;;26.90;23.80;;;5.50;95.20;;;4.06;98.74;98348.84;5087023;28;20550;-73
2021/10/26 00:16:18;;;;;;;29.13;25.37;;;5.40;96.00;;;3.93;98.09;98355.50;5089949;28;20623;-73
2021/10/26 00:18:46;;;;;;;31.13;24.97;;;5.40;95.30;;;3.87;98.34;98364.19;5085099;28;20466;-73
2021/10/26 00:21:12;;;;;;;30.87;24.97;;;5.30;96.00;;;3.94;98.58;98373.22;5083210;28;20446;-73
2021/10/26 00:23:39;;;;;;;31.07;27.00;;;5.30;97.10;;;3.92;98.68;98369.88;5085688;28;20456;-73
2021/10/26 00:26:08;;;;;;;26.43;22.30;;;5.30;96.40;;;3.80;98.68;98360.47;5081082;28;20557;-75
2021/10/26 00:28:36;;;;;;;30.83;24.37;;;5.20;96.50;;;3.68;99.92;98368.78;5090541;28;20545;-74
2021/10/26 00:31:03;;;;;;;29.17;26.03;;;5.00;97.20;;;3.57;100.00;98370.94;5090949;28;20461;-75
2021/10/26 00:33:31;;;;;;;33.17;25.50;;;5.00;97.30;;;3.47;100.00;98379.91;5091008;28;21065;-74
2021/10/26 00:35:58;;;;;;;32.53;26.70;;;4.80;98.40;;;3.34;100.00;98374.19;5091236;28;20465;-74
2021/10/26 00:38:25;;;;;;;34.43;25.23;;;4.70;99.90;;;3.32;100.00;98368.16;5090269;28;21040;-76
2021/10/26 00:40:52;;;;;;;28.60;25.50;;;4.70;99.90;;;3.31;100.00;98380.69;5093280;28;20460;-75
2021/10/26 00:43:21;;;;;;;34.83;27.07;;;4.70;99.90;;;3.15;100.00;98372.59;5089474;28;20534;-75
2021/10/26 00:45:49;;;;;;;37.77;28.20;;;4.60;99.90;;;3.16;100.00;98387.63;5086862;28;20458;-75
2021/10/26 00:48:16;;;;;;;32.97;25.80;;;4.50;99.90;;;2.93;100.00;98342.75;5091763;28;20560;-74
2021/10/26 00:50:43;;;;;;;32.50;26.37;;;4.50;99.90;;;3.22;100.00;98378.97;5087131;28;20546;-74
2021/10/26 00:53:10;;;;;;;31.43;27.23;;;4.50;99.90;;;3.37;100.00;98373.88;5091132;28;20461;-74
2021/10/26 00:55:37;;;;;;;32.60;27.10;;;4.60;99.90;;;3.38;100.00;98378.22;5088367;28;20472;-73
2021/10/26 00:58:05;;;;;;;32.80;24.23;;;4.70;99.90;;;3.51;100.00;98383.09;5092879;28;20459;-74
2021/10/26 01:00:34;;;;;;;33.83;26.53;;;4.70;99.90;;;3.52;100.00;98368.75;5087749;28;20446;-74
2021/10/26 01:03:01;;;;;;;33.57;27.13;;;4.80;99.90;;;3.59;100.00;98350.22;5093361;28;20481;-72
2021/10/26 01:05:28;;;;;;;34.20;27.00;;;4.90;99.90;;;3.64;100.00;98361.25;5094022;28;20512;-77
2021/10/26 01:07:55;;;;;;;30.20;26.20;;;5.00;99.20;;;3.64;100.00;98362.09;5092738;28;20466;-75
2021/10/26 01:10:22;;;;;;;35.47;27.23;;;5.00;98.50;;;3.76;99.28;98359.13;5090880;28;20486;-74
2021/10/26 01:12:51;;;;;;;33.50;28.80;;;5.10;97.60;;;3.64;99.63;98369.28;5095366;28;20484;-75
2021/10/26 01:15:18;;;;;;;29.97;26.60;;;5.00;96.70;;;3.57;99.76;98376.28;5089788;28;20466;-75
2021/10/26 01:17:46;;;;;;;30.47;25.97;;;5.00;96.10;;;3.44;99.94;98376.75;5091907;28;20542;-74
2021/10/26 01:20:14;;;;;;;28.00;23.73;;;4.90;96.70;;;3.45;99.22;98367.72;5090095;28;20482;-75
2021/10/26 01:22:41;;;;;;;31.83;25.00;;;4.90;97.10;;;3.42;99.12;98376.06;5094707;28;20542;-74
2021/10/26 01:25:11;;;;;;;28.47;25.37;;;4.80;96.50;;;3.32;100.00;98379.69;5094213;28;20486;-76
2021/10/26 01:27:47;;;;;;;28.73;23.90;;;4.80;97.20;;;3.37;99.79;98382.72;5091031;28;20494;-73
2021/10/26 01:30:16;;;;;;;29.60;24.70;;;4.70;98.20;;;3.38;100.00;98394.25;5093081;28;20445;-74
2021/10/26 01:32:43;;;;;;;27.93;24.13;;;4.70;97.40;;;3.32;99.26;98373.50;5085959;28;20468;-73
2021/10/26 01:35:11;;;;;;;27.60;24.40;;;4.70;97.10;;;3.25;99.91;98381.31;5091168;28;20979;-75
2021/10/26 01:37:39;;;;;;;30.83;24.33;;;4.70;97.30;;;3.19;100.00;98381.97;5095229;28;20541;-73
2021/10/26 01:40:09;;;;;;;33.87;26.03;;;4.60;97.60;;;3.09;100.00;98390.09;5089422;28;20457;-73
2021/10/26 01:42:37;;;;;;;31.80;25.40;;;4.50;98.50;;;2.99;100.00;98390.19;5089375;28;20464;-75
2021/10/26 01:45:05;;;;;;;29.17;24.97;;;4.40;99.80;;;3.15;100.00;98381.44;5092252;28;20808;-75
2021/10/26 01:47:32;;;;;;;30.57;24.23;;;4.50;99.90;;;3.25;100.00;98379.50;5104539;28;21068;-75
2021/10/26 01:49:59;;;;;;;27.40;23.70;;;4.50;99.90;;;3.29;100.00;98369.34;5089802;28;20926;-74
2021/10/26 01:52:26;;;;;;;27.57;24.30;;;4.60;98.80;;;3.26;99.43;98380.31;5090026;28;20821;-74
2021/10/26 01:54:54;;;;;;;31.00;23.40;;;4.60;97.50;;;3.19;99.61;98374.78;5089266;28;20885;-74
2021/10/26 01:57:22;;;;;;;27.93;24.20;;;4.60;97.40;;;2.95;100.00;98367.47;5092736;28;21004;-74
2021/10/26 01:59:49;;;;;;;29.30;25.23;;;4.50;96.90;;;3.05;100.00;98370.88;5088346;28;20450;-75
2021/10/26 02:02:16;;;;;;;31.90;25.70;;;4.40;99.90;;;3.14;100.00;98370.94;5090062;28;20482;-75
2021/10/26 02:04:43;;;;;;;33.53;26.70;;;4.50;99.90;;;3.05;100.00;98378.88;5089969;28;20468;-73
2021/10/26 02:07:11;;;;;;;31.67;26.23;;;4.50;99.50;;;3.12;100.00;98379.09;5081649;28;20506;-74
2021/10/26 02:09:38;;;;;;;30.87;25.87;;;4.50;99.90;;;3.04;100.00;98382.53;5088855;28;20454;-73
2021/10/26 02:12:07;;;;;;;33.53;26.07;;;4.50;99.90;;;3.02;100.00;98389.03;5088247;28;20534;-74
2021/10/26 02:14:34;;;;;;;32.87;25.83;;;4.50;99.90;;;3.04;100.00;98387.88;5079417;28;20966;-75
2021/10/26 02:17:03;;;;;;;30.70;25.57;;;4.50;99.90;;;3.04;100.00;98387.88;5079713;28;20466;-73
2021/10/26 02:19:30;;;;;;;30.80;26.13;;;4.40;99.90;;;3.10;100.00;98387.25;5089225;28;20783;-73
2021/10/26 02:21:57;;;;;;;32.30;26.47;;;4.50;99.90;;;3.06;100.00;98390.41;5082075;28;20454;-74
2021/10/26 02:24:24;;;;;;;32.00;25.90;;;4.50;99.90;;;2.98;100.00;98388.53;5088865;28;20481;-73
2021/10/26 02:26:52;;;;;;;33.63;26.07;;;4.40;99.90;;;3.01;100.00;98393.53;5085236;28;20560;-74
2021/10/26 02:29:20;;;;;;;33.57;27.00;;;4.40;99.90;;;2.87;100.00;98391.44;5081510;28;20889;-74
2021/10/26 02:31:47;;;;;;;33.00;26.30;;;4.40;99.90;;;2.96;100.00;98391.34;5088095;28;20449;-76
2021/10/26 02:34:14;;;;;;;29.03;23.43;;;4.40;99.90;;;2.96;100.00;98385.19;5087409;28;20458;-76
2021/10/26 02:36:41;;;;;;;28.53;22.27;;;4.40;99.90;;;2.93;100.00;98401.50;5089117;28;20530;-75
2021/10/26 02:39:08;;;;;;;30.13;23.47;;;4.40;99.50;;;2.97;100.00;98398.34;5103265;28;20778;-75
2021/10/26 02:41:35;;;;;;;29.27;23.70;;;4.30;99.90;;;2.78;100.00;98382.56;5087846;28;20836;-75
2021/10/26 02:44:03;;;;;;;27.80;24.47;;;4.30;99.90;;;2.89;100.00;98402.81;5072981;28;20441;-74
2021/10/26 02:46:31;;;;;;;28.80;24.77;;;4.30;99.90;;;2.95;100.00;98400.34;5085711;28;20548;-75
2021/10/26 02:48:58;;;;;;;31.30;25.03;;;4.30;99.90;;;2.94;100.00;98404.00;5083707;28;20537;-74
2021/10/26 02:51:25;;;;;;;30.17;25.30;;;4.40;99.90;;;2.97;100.00;98397.53;5093625;28;20485;-74
2021/10/26 02:53:52;;;;;;;29.50;25.60;;;4.40;99.90;;;3.00;100.00;98377.69;5092581;28;20941;-74
2021/10/26 02:56:20;;;;;;;33.53;25.83;;;4.40;99.90;;;3.01;100.00;98393.53;5088420;28;20544;-75
2021/10/26 02:58:47;;;;;;;26.63;23.43;;;4.40;99.90;;;2.95;100.00;98394.16;5089213;28;20463;-74
2021/10/26 03:01:15;;;;;;;28.10;24.27;;;4.40;99.90;;;3.01;100.00;98404.22;5088636;28;20494;-73
2021/10/26 03:03:43;;;;;;;28.67;25.57;;;4.40;99.90;;;3.00;100.00;98402.56;5086153;28;20451;-75
2021/10/26 03:06:10;;;;;;;27.70;22.90;;;4.40;99.90;;;2.98;100.00;98389.34;5090973;28;20445;-75
2021/10/26 03:08:37;;;;;;;31.90;23.63;;;4.40;99.90;;;3.02;100.00;98400.56;5083654;28;20479;-75
2021/10/26 03:11:04;;;;;;;29.33;23.73;;;4.40;99.40;;;3.06;100.00;98403.75;5091489;28;20533;-77
2021/10/26 03:13:32;;;;;;;29.53;24.37;;;4.50;98.60;;;2.96;100.00;98396.69;5089427;28;20457;-76
2021/10/26 03:15:59;;;;;;;28.40;22.50;;;4.40;98.50;;;3.07;100.00;98408.91;5089223;28;20525;-76
2021/10/26 03:18:26;;;;;;;28.73;23.63;;;4.40;99.90;;;2.98;100.00;98408.03;5089560;28;20476;-73
2021/10/26 03:20:57;;;;;;;26.23;23.30;;;4.40;98.70;;;3.01;100.00;98419.38;5087662;28;20538;-74
2021/10/26 03:23:24;;;;;;;29.87;24.07;;;4.40;98.60;;;2.95;100.00;98411.03;5082245;28;20481;-74
2021/10/26 03:25:51;;;;;;;29.77;25.03;;;4.40;99.10;;;2.96;100.00;98422.56;5089970;28;20453;-74
2021/10/26 03:28:19;;;;;;;29.10;24.07;;;4.40;98.70;;;3.04;100.00;98427.94;5088234;28;21030;-74
2021/10/26 03:30:46;;;;;;;30.10;24.53;;;4.40;98.50;;;2.94;100.00;98435.19;5082150;28;20482;-74
2021/10/26 03:33:13;;;;;;;27.83;23.80;;;4.40;98.10;;;2.96;100.00;98442.06;5094090;28;20504;-75
2021/10/26 03:35:40;;;;;;;30.77;23.37;;;4.40;98.30;;;2.93;100.00;98449.53;5084945;28;20545;-75
2021/10/26 03:38:08;;;;;;;30.43;23.40;;;4.30;98.10;;;2.77;100.00;98416.41;5089761;28;20511;-73
2021/10/26 03:40:36;;;;;;;31.43;24.60;;;4.30;98.60;;;2.92;100.00;98445.19;5083186;28;20458;-75
2021/10/26 03:43:04;;;;;;;31.70;23.90;;;4.30;98.20;;;2.96;100.00;98443.91;5076667;28;20449;-73
2021/10/26 03:45:31;;;;;;;36.60;25.57;;;4.30;98.00;;;2.78;100.00;98431.41;5089349;28;20470;-74
2021/10/26 03:47:58;;;;;;;27.50;23.80;;;4.30;97.20;;;2.88;100.00;98449.19;5086344;28;20593;-73
2021/10/26 03:50:25;;;;;;;31.00;24.30;;;4.30;97.10;;;2.91;100.00;98441.72;5082940;28;20884;-74
2021/10/26 03:52:52;;;;;;;31.30;25.50;;;4.40;97.50;;;2.88;100.00;98441.16;5084977;28;20510;-74
2021/10/26 03:55:21;;;;;;;32.40;25.80;;;4.30;97.20;;;2.80;100.00;98429.44;5086619;28;20487;-74
2021/10/26 03:57:48;;;;;;;27.87;23.77;;;4.30;98.20;;;2.77;100.00;98443.09;5089279;28;20460;-75
2021/10/26 04:00:15;;;;;;;30.77;25.10;;;4.20;97.90;;;2.86;100.00;98445.84;5086055;28;20457;-74
2021/10/26 04:02:42;;;;;;;31.80;25.07;;;4.30;98.70;;;2.78;100.00;98447.44;5083309;28;20484;-74
2021/10/26 04:05:21;;;;;;;26.60;23.53;;;4.30;99.20;;;2.91;100.00;98449.72;5088047;28;20457;-74
2021/10/26 04:07:53;;;;;;;33.00;25.77;;;4.30;99.90;;;2.98;100.00;98441.91;5083831;28;20474;-74
2021/10/26 04:10:35;;;;;;;29.30;24.60;;;4.40;99.70;;;2.98;100.00;98432.06;5089168;28;20588;-75
2021/10/26 04:13:03;;;;;;;28.67;23.73;;;4.50;99.50;;;3.14;100.00;98435.00;5087993;28;21003;-74
2021/10/26 04:15:31;;;;;;;27.20;23.63;;;4.60;98.30;;;3.13;100.00;98428.81;5083871;28;20537;-74
2021/10/26 04:17:58;;;;;;;31.47;25.70;;;4.70;97.40;;;3.36;99.78;98449.66;5086642;28;20491;-74
2021/10/26 04:20:25;;;;;;;30.93;24.77;;;4.80;96.90;;;3.44;99.07;98456.88;5085706;28;20550;-74
2021/10/26 04:22:52;;;;;;;31.73;24.53;;;4.80;96.10;;;3.51;99.42;98458.75;5086997;28;20852;-74
2021/10/26 04:25:20;;;;;;;28.40;24.60;;;4.90;96.50;;;3.62;99.08;98446.94;5079115;28;20494;-74
2021/10/26 04:27:47;;;;;;;28.90;22.27;;;5.00;95.80;;;3.43;99.39;98441.84;5086701;28;20531;-76
2021/10/26 04:30:14;;;;;;;28.53;23.50;;;5.00;95.30;;;3.73;98.65;98458.34;5086231;28;20886;-74
2021/10/26 04:32:41;;;;;;;28.90;23.73;;;5.10;95.40;;;3.79;98.03;98455.03;5086151;28;20481;-74
2021/10/26 04:35:09;;;;;;;28.20;23.80;;;5.20;95.00;;;3.86;98.71;98453.38;5086629;28;20466;-75
2021/10/26 04:37:37;;;;;;;29.73;24.57;;;5.20;95.70;;;3.96;98.93;98467.47;5089250;28;20470;-74
2021/10/26 04:40:05;;;;;;;28.40;24.00;;;5.30;96.00;;;3.79;98.08;98468.41;5084972;28;20458;-77
2021/10/26 04:42:34;;;;;;;26.53;23.37;;;5.30;93.50;;;3.70;98.06;98446.16;5087949;28;20465;-76
2021/10/26 04:45:01;;;;;;;28.13;24.73;;;5.20;94.30;;;3.75;99.10;98459.84;5086194;28;20449;-74
2021/10/26 04:47:28;;;;;;;30.50;23.97;;;5.20;95.10;;;4.01;97.92;98463.44;5090559;28;20554;-75
2021/10/26 04:49:56;;;;;;;31.47;24.23;;;5.40;94.20;;;4.15;98.24;98462.81;5086429;28;20544;-75
2021/10/26 04:52:23;;;;;;;25.33;22.30;;;5.40;95.10;;;4.57;100.00;98457.56;5085597;28;20562;-74
2021/10/26 04:54:50;;;;;;;29.27;24.80;;;5.70;99.90;;;4.67;97.86;98452.88;5082084;28;20542;-74
2021/10/26 04:57:17;;;;;;;26.53;21.70;;;5.90;96.70;;;4.58;97.44;98469.94;5087348;28;20486;-74
2021/10/26 04:59:46;;;;;;;27.23;22.70;;;5.90;93.70;;;4.30;97.02;98478.25;5081160;28;20546;-75
2021/10/26 05:02:13;;;;;;;28.13;22.67;;;5.80;92.50;;;4.51;97.84;98480.47;5087147;28;20541;-73
2021/10/26 05:04:40;;;;;;;25.57;22.90;;;5.80;95.00;;;4.65;98.42;98476.31;5081194;28;20544;-74
2021/10/26 05:07:07;;;;;;;29.20;23.30;;;5.90;94.90;;;4.49;96.31;98469.94;5088050;28;20962;-75
2021/10/26 05:09:34;;;;;;;29.13;23.40;;;5.90;92.40;;;4.69;97.61;98472.28;5087297;28;20537;-74
2021/10/26 05:12:00;;;;;;;24.17;21.50;;;6.00;94.80;;;4.53;96.51;98475.78;5088851;28;20546;-74
2021/10/26 05:14:28;;;;;;;30.43;24.07;;;5.90;92.60;;;4.41;96.63;98475.25;5094177;28;20888;-73
2021/10/26 05:16:57;;;;;;;27.47;22.97;;;5.90;92.80;;;4.63;97.64;98470.28;5086813;28;20492;-74
2021/10/26 05:19:24;;;;;;;32.57;25.07;;;5.90;94.20;;;4.39;96.51;98478.09;5087033;28;20453;-74
2021/10/26 05:21:51;;;;;;;29.77;23.33;;;5.80;92.90;;;4.72;96.92;98463.09;5083471;28;20485;-74
2021/10/26 05:24:18;;;;;;;27.03;23.00;;;6.10;94.70;;;4.65;95.85;98465.59;5089422;28;20465;-75
2021/10/26 05:26:47;;;;;;;33.10;23.30;;;6.10;92.80;;;4.51;95.19;98421.59;5086762;28;20523;-74
2021/10/26 05:29:14;;;;;;;31.93;23.10;;;6.20;92.00;;;4.75;96.62;98471.63;5090912;28;21102;-75
2021/10/26 05:31:41;;;;;;;26.37;23.77;;;6.10;93.00;;;4.76;95.51;98475.97;5089965;28;20533;-73
2021/10/26 05:34:09;;;;;;;28.97;22.03;;;6.10;92.50;;;4.88;96.98;98481.00;5087954;28;20541;-74
2021/10/26 05:36:37;;;;;;;29.23;24.37;;;6.10;94.40;;;4.76;95.85;98484.00;5088267;28;20470;-74
2021/10/26 05:39:07;;;;;;;26.40;22.33;;;6.10;93.00;;;4.68;96.12;98475.97;5088553;28;20537;-76
2021/10/26 05:41:34;;;;;;;27.37;22.40;;;6.10;92.60;;;4.82;96.00;98486.03;5084534;28;20483;-75
2021/10/26 05:44:01;;;;;;;28.50;23.80;;;6.20;92.80;;;4.92;97.29;98482.31;5087166;28;20460;-75
2021/10/26 05:46:29;;;;;;;34.40;26.73;;;6.20;94.50;;;4.96;96.83;98481.81;5085484;28;20839;-77
2021/10/26 05:48:56;;;;;;;29.77;23.40;;;6.30;94.00;;;5.17;95.67;98490.34;5084371;28;20466;-76
2021/10/26 05:51:25;;;;;;;28.40;24.40;;;6.50;92.60;;;5.33;95.11;98484.97;5082274;28;20478;-77
2021/10/26 05:53:52;;;;;;;26.93;24.03;;;6.70;92.00;;;5.35;95.15;98496.34;5079560;28;20457;-77
2021/10/26 05:56:19;;;;;;;26.10;22.90;;;6.70;92.40;;;5.76;95.06;98495.44;5090424;28;20454;-76
2021/10/26 05:58:46;;;;;;;24.73;22.00;;;6.90;93.20;;;5.38;94.94;98490.66;5090896;28;20454;-77
2021/10/26 06:01:14;;;;;;;30.10;22.10;;;6.70;91.90;;;5.29;94.76;98494.38;5070215;28;20456;-77
2021/10/26 06:03:41;;;;;;;26.90;23.13;;;6.70;91.90;;;5.29;95.22;98496.19;5089582;28;20545;-77
2021/10/26 06:06:08;;;;;;;26.80;22.90;;;6.60;92.30;;;5.59;93.93;98499.16;5086405;28;20486;-76
2021/10/26 06:08:36;;;;;;;27.23;22.60;;;6.80;91.90;;;5.48;94.33;98500.34;5087428;28;20849;-77
2021/10/26 06:11:07;;;;;;;29.90;23.97;;;6.80;92.20;;;5.56;94.82;98511.06;5083633;28;20524;-77
2021/10/26 06:13:38;;;;;;;27.90;22.70;;;6.90;91.70;;;5.68;94.41;98509.69;5092038;28;20508;-74
2021/10/26 06:16:05;;;;;;;27.13;23.43;;;6.90;92.00;;;5.55;94.46;98512.09;5089610;28;20552;-76
2021/10/26 06:18:32;;;;;;;26.23;23.40;;;6.90;91.10;;;5.68;94.61;98525.75;5087039;28;21017;-76
2021/10/26 06:21:02;;;;;;;25.90;22.63;;;6.90;92.00;;;5.60;94.39;98517.75;5087030;28;20534;-82
2021/10/26 06:23:31;;;;;;;26.23;21.80;;;6.90;91.30;;;5.74;95.17;98513.50;5074306;28;20454;-75
2021/10/26 06:26:00;;;;;;;23.57;21.03;;;7.00;92.50;;;5.85;93.50;98525.75;5082227;28;20462;-75
2021/10/26 06:28:28;;;;;;;24.90;21.40;;;7.10;91.50;;;5.84;93.38;98531.28;5084927;28;20471;-74
2021/10/26 06:30:56;;;;;;;24.57;21.53;;;7.20;90.90;;;5.72;95.02;98528.13;5079968;28;20818;-75
2021/10/26 06:33:23;;;;;;;25.33;20.70;;;7.10;92.10;;;5.64;94.71;98534.34;5087455;28;20453;-74
2021/10/26 06:35:50;;;;;;;23.70;21.00;;;7.00;91.50;;;5.84;93.73;98545.53;5084641;28;20545;-74
2021/10/26 06:38:17;;;;;;;29.03;21.77;;;7.10;91.70;;;5.73;94.32;98544.03;5078114;28;20546;-73
2021/10/26 06:40:43;;;;;;;22.93;20.30;;;7.10;91.90;;;6.03;94.48;98554.22;5086571;28;20540;-74
2021/10/26 06:43:12;;;;;;;23.87;21.37;;;7.20;92.30;;;6.08;93.52;98554.53;5084886;28;20486;-73
2021/10/26 06:45:39;;;;;;;31.40;22.50;;;7.30;91.20;;;6.14;93.08;98563.72;5084253;28;20490;-73
2021/10/26 06:48:06;;;;;;;28.60;22.90;;;7.40;90.70;;;6.13;93.93;98559.38;5078655;28;20479;-73
2021/10/26 06:50:34;;;;;;;26.03;23.23;;;7.40;91.60;;;6.10;93.40;98555.19;5100281;28;20555;-74
2021/10/26 06:53:01;;;;;;;27.00;22.40;;;7.40;90.80;;;5.86;93.43;98559.59;5082217;28;20576;-73
2021/10/26 06:55:28;;;;;;;25.47;22.33;;;7.30;90.80;;;6.01;94.29;98566.94;5083123;28;20538;-73
2021/10/26 06:57:56;;;;;;;28.13;21.33;;;7.30;91.90;;;6.12;94.36;98571.94;5083367;28;20570;-73
2021/10/26 07:00:25;;;;;;;28.30;21.73;;;7.40;91.90;;;6.20;94.10;98577.28;5082830;28;20446;-73
2021/10/26 07:02:54;;;;;;;24.40;20.70;;;7.40;91.50;;;6.16;94.24;98570.59;5081437;28;20470;-73
2021/10/26 07:05:24;;;;;;;23.10;20.70;;;7.40;91.80;;;6.20;93.18;98571.91;5086635;28;20458;-73
2021/10/26 07:07:52;;;;;;;26.70;22.03;;;7.50;91.00;;;6.20;93.49;98573.75;5078496;28;20537;-69
2021/10/26 07:10:20;;;;;;;29.30;21.50;;;7.50;91.30;;;6.30;94.60;98576.25;5080563;28;20569;-73
2021/10/26 07:12:48;;;;;;;28.00;22.07;;;7.50;92.40;;;6.46;93.70;98583.38;5080978;28;20572;-72
2021/10/26 07:15:16;;;;;;;22.27;19.97;;;7.70;91.60;;;6.80;92.31;98580.34;5082008;28;20472;-73
2021/10/26 07:17:44;;;;;;;24.67;21.40;;;7.90;91.10;;;6.67;91.92;98582.78;5078686;28;20457;-72
2021/10/26 07:20:14;;;;;;;22.70;20.20;;;7.90;90.10;;;6.79;91.87;98583.19;5079079;28;20518;-73
2021/10/26 07:22:42;;;;;;;29.13;22.43;;;8.00;90.30;;;6.98;91.01;98581.91;5084338;28;20549;-72
2021/10/26 07:25:11;;;;;;;25.73;20.33;;;8.20;88.80;;;6.75;91.98;98582.75;5083940;28;21146;-73
2021/10/26 07:27:40;;;;;;;23.57;21.07;;;8.20;89.30;;;6.83;92.13;98586.38;5076669;28;20829;-72
2021/10/26 07:30:10;;;;;;;25.90;20.60;;;8.10;89.90;;;7.02;91.36;98591.28;5072651;28;20557;-72
2021/10/26 07:32:37;;;;;;;23.70;21.20;;;8.30;89.40;;;7.06;91.04;98586.38;5095674;28;20526;-72
2021/10/26 07:35:08;;;;;;;24.67;21.77;;;8.30;88.90;;;7.34;90.97;98589.34;5076982;28;20486;-72
2021/10/26 07:37:36;;;;;;;27.77;21.97;;;8.50;90.00;;;7.22;90.60;98586.28;5073682;28;20560;-73
2021/10/26 07:40:06;;;;;;;27.13;22.33;;;8.50;88.70;;;7.18;90.63;98581.44;5070942;28;20759;-72
2021/10/26 07:42:33;;;;;;;24.40;21.77;;;8.50;88.30;;;7.21;90.63;98589.16;5071958;28;20813;-72
2021/10/26 07:45:00;;;;;;;27.77;23.47;;;8.50;88.30;;;7.03;91.67;98606.38;5082076;28;20870;-72
2021/10/26 07:47:27;;;;;;;28.33;22.53;;;8.40;89.10;;;7.14;91.35;98599.78;5081829;28;20549;-72
2021/10/26 07:49:58;;;;;;;26.63;22.63;;;8.50;89.30;;;7.21;91.49;98594.53;5081491;28;20478;-72
2021/10/26 07:52:28;;;;;;;27.20;23.97;;;8.50;89.40;;;7.39;91.05;98601.44;5075189;28;20555;-73
2021/10/26 07:54:55;;;;;;;29.87;22.87;;;8.60;89.70;;;7.51;89.73;98590.06;5080422;28;20820;-73
2021/10/26 07:57:23;;;;;;;28.57;22.33;;;8.80;88.30;;;7.52;90.51;98612.44;5077155;28;20550;-73
2021/10/26 07:59:51;;;;;;;26.50;21.57;;;8.70;88.70;;;7.62;90.00;98601.41;5083473;28;20461;-72
2021/10/26 08:02:19;;;;;;;24.00;21.53;;;8.80;88.60;;;7.54;90.43;98613.09;5078868;28;20459;-73
2021/10/26 08:04:47;;;;;;;25.70;20.67;;;8.80;88.20;;;7.56;91.18;98619.09;5084492;28;20913;-74
2021/10/26 08:07:17;;;;;;;25.97;22.90;;;8.80;89.50;;;7.76;90.17;98618.59;5079960;28;20494;-73
2021/10/26 08:09:46;;;;;;;24.50;21.87;;;8.90;89.10;;;7.80;90.52;98630.66;5082653;28;20482;-73
2021/10/26 08:12:15;;;;;;;26.63;21.60;;;8.90;89.80;;;8.05;89.05;98617.81;5080167;28;20485;-73
2021/10/26 08:14:42;;;;;;;26.67;22.40;;;9.20;88.00;;;7.83;89.36;98622.25;5081814;28;20512;-73
2021/10/26 08:17:10;;;;;;;24.50;21.20;;;9.20;87.50;;;8.11;88.33;98628.84;5076226;28;20479;-74
2021/10/26 08:19:38;;;;;;;29.27;21.13;;;9.30;86.60;;;8.12;88.82;98642.13;5080136;28;20550;-73
2021/10/26 08:22:11;;;;;;;22.70;19.70;;;9.40;86.40;;;8.52;87.42;98638.34;5075042;28;20490;-74
2021/10/26 08:24:38;;;;;;;21.47;18.70;;;9.60;86.10;;;8.35;87.91;98638.50;5082017;28;20877;-74
2021/10/26 08:27:09;;;;;;;23.50;19.90;;;9.60;86.20;;;8.32;88.07;98628.13;5080260;28;20459;-73
2021/10/26 08:29:42;;;;;;;25.67;19.70;;;9.50;86.10;;;8.36;87.90;98634.78;5081737;28;20474;-74
2021/10/26 08:32:27;;;;;;;21.47;18.83;;;9.60;85.70;;;8.71;86.64;98624.28;5082898;28;20464;-75
2021/10/26 08:35:16;;;;;;;20.70;18.40;;;9.80;85.10;;;8.53;87.06;98618.47;5077875;28;20448;-74
2021/10/26 08:37:44;;;;;;;21.33;18.33;;;9.80;84.80;;;8.94;85.50;98631.41;5080238;28;20463;-74
2021/10/26 08:40:11;;;;;;;21.13;18.23;;;10.10;83.10;;;9.30;84.13;98638.63;5082547;28;20927;-73
2021/10/26 08:42:40;;;;;;;21.23;18.30;;;10.40;82.10;;;9.58;82.83;98634.34;5079900;28;20467;-72
2021/10/26 08:45:09;;;;;;;21.13;18.50;;;10.70;81.00;;;9.74;81.16;98630.53;5082170;28;20860;-72
2021/10/26 08:47:38;;;;;;;19.60;17.70;;;10.90;79.70;;;10.21;80.55;98626.28;5087504;28;20489;-75
2021/10/26 08:50:06;;;;;;;20.13;17.97;;;11.10;79.80;;;10.92;77.26;98623.53;5082131;28;20988;-73
2021/10/26 08:52:34;;;;;;;18.50;15.67;;;11.80;77.80;;;10.63;77.08;98580.41;5084123;28;20487;-72
2021/10/26 08:55:01;;;;;;;19.80;17.70;;;11.90;76.60;;;11.15;76.68;98619.66;5084835;28;20460;-76
2021/10/26 08:57:28;;;;;;;18.73;16.97;;;12.20;75.90;;;11.22;75.48;98622.38;5087146;28;20542;-76
2021/10/26 09:00:05;;;;;;;18.53;16.47;;;12.40;74.50;;;11.30;75.46;98617.63;5084757;28;20554;-77
2021/10/26 09:02:35;;;;;;;19.53;17.17;;;12.50;74.10;;;11.69;75.20;98625.13;5087418;28;20980;-75
2021/10/26 09:05:13;;;;;;;19.27;17.23;;;12.50;74.40;;;11.96;72.31;98625.94;5082932;28;20503;-74
2021/10/26 09:07:41;;;;;;;20.20;15.77;;;13.00;72.70;;;11.17;75.75;98633.81;5088497;28;20751;-74
2021/10/26 09:10:13;;;;;;;17.83;16.00;;;12.50;72.70;;;11.81;73.16;98628.91;5082771;28;21058;-75
2021/10/26 09:18:26;;;;;;;17.60;15.57;;;13.30;72.30;;;12.35;72.80;98619.91;5083783;28;20533;-71
2021/10/26 09:21:27;;;;;;;16.10;14.60;;;13.30;72.10;;;12.42;72.43;98613.41;5082075;28;20617;-71
2021/10/26 09:24:16;;;;;;;17.13;15.10;;;13.50;71.40;;;13.01;69.40;98617.97;5085268;28;20439;-71
2021/10/26 09:27:06;;;;;;;15.77;14.23;;;14.00;70.20;;;12.85;70.83;98605.75;5101338;28;20429;-71
2021/10/26 09:29:56;;;;;;;16.97;15.17;;;13.90;70.10;;;12.82;70.19;98606.19;5101738;28;20609;-75
2021/10/26 09:32:47;;;;;;;19.10;16.00;;;14.10;69.30;;;13.18;68.72;98615.59;5102358;28;20435;-74
2021/10/26 09:35:35;;;;;;;16.10;14.50;;;14.20;69.20;;;12.81;70.22;98601.78;5106727;28;20920;-76
2021/10/26 09:38:28;;;;;;;17.97;15.43;;;14.20;68.90;;;12.40;71.98;98603.81;5108383;27;21120;-75
2021/10/26 09:41:06;;;;;;;17.80;15.47;;;13.70;69.60;;;12.60;71.15;98612.75;5101856;27;20547;-77
2021/10/26 09:43:33;;;;;;;14.50;13.00;;;13.80;69.30;;;13.12;69.31;98590.16;5091937;28;20460;-75
2021/10/26 09:46:04;;;;;;;16.43;14.80;;;14.10;68.90;;;13.54;67.19;98597.81;5091008;28;20482;-74
2021/10/26 09:48:34;;;;;;;15.57;13.90;;;14.50;67.90;;;13.22;67.87;98610.56;5088574;28;21410;-74
2021/10/26 09:51:04;;;;;;;15.43;13.33;;;14.30;67.20;;;12.73;70.24;98611.84;5111065;27;20577;-74
2021/10/26 09:53:34;;;;;;;14.70;13.20;;;14.10;67.80;;;12.93;70.26;98618.22;5104949;28;20482;-75
2021/10/26 09:56:03;;;;;;;15.67;14.27;;;13.90;68.60;;;13.34;68.50;98614.22;5109261;27;20482;-74
2021/10/26 09:58:32;;;;;;;18.40;14.80;;;14.20;68.30;;;13.10;69.40;98613.97;5086334;28;20486;-74
2021/10/26 10:01:08;;;;;;;15.97;12.93;;;14.10;68.30;;;12.77;71.41;98614.13;5108679;27;20474;-74
2021/10/26 10:03:36;;;;;;;15.00;13.53;;;13.80;69.10;;;12.86;70.34;98612.84;5107309;28;20462;-74
2021/10/26 10:06:05;;;;;;;12.60;11.40;;;13.80;69.20;;;13.56;68.96;98609.28;5109949;27;20491;-74
2021/10/26 10:08:34;;;;;;;14.60;13.20;;;14.30;69.00;;;13.93;67.48;98605.03;5093395;28;20448;-75
2021/10/26 10:11:11;;;;;;;17.77;13.60;;;14.70;68.00;;;14.31;66.04;98612.19;5087275;27;20483;-74
2021/10/26 10:13:41;;;;;;;14.13;12.77;;;15.10;67.50;;;14.25;67.39;98602.22;5105487;27;20963;-75
2021/10/26 10:16:11;;;;;;;16.47;13.03;;;15.00;67.70;;;14.00;67.15;98605.81;5086296;28;20907;-75
2021/10/26 10:18:43;;;;;;;14.60;13.10;;;15.00;66.90;;;13.97;66.41;98609.81;5085713;28;20986;-74
2021/10/26 10:21:13;;;;;;;13.10;11.80;;;15.00;66.60;;;14.14;66.04;98612.78;5093972;27;20917;-74
2021/10/26 10:23:43;;;;;;;13.40;12.10;;;15.00;66.50;;;14.25;65.09;98610.38;5089911;28;20475;-74
2021/10/26 10:26:11;;;;;;;11.37;10.20;;;15.10;66.10;;;13.80;66.34;98625.84;5101857;27;20469;-70
2021/10/26 10:28:42;;;;;;;10.55;9.45;;;14.80;65.70;;;13.53;67.29;98623.31;5103555;27;20447;-73